Time;durP1;ratioP1;P1;durP2;ratioP2;P2;SDS_P1;SDS_P2;PMS_P1;PMS_P2;Temp;Humidity;BMP_temperature;BMP_pressure;BME280_temperature;BME280_humidity;BME280_pressure;Samples;Min_cycle;Max_cycle;Signal;HPM_P1;HPM_P2
2021/10/15 00:01:51;;;;;;;6.80;6.00;;;;;;;11.29;72.84;101017.28;5033658;28;20495;-42
2021/10/15 00:04:16;;;;;;;7.70;6.20;;;;;;;11.30;72.87;101018.13;5011702;28;20026;-45
2021/10/15 00:06:41;;;;;;;8.57;6.57;;;;;;;11.30;73.09;101015.50;5010290;28;20133;-42
2021/10/15 00:09:06;;;;;;;7.10;6.40;;;;;;;11.31;72.68;101013.75;5010605;28;20095;-42
2021/10/15 00:11:32;;;;;;;6.78;5.82;;;;;;;11.29;73.04;101009.34;5012852;28;20508;-43
2021/10/15 00:13:57;;;;;;;7.63;6.22;;;;;;;11.28;72.95;100993.53;5012282;28;20032;-41
2021/10/15 00:16:22;;;;;;;7.80;6.38;;;;;;;11.30;72.81;101004.94;5012187;28;20050;-42
2021/10/15 00:18:48;;;;;;;6.47;5.60;;;;;;;11.30;72.97;100994.38;5010994;28;20041;-42
2021/10/15 00:21:13;;;;;;;7.97;6.50;;;;;;;11.29;72.77;100988.22;5011598;28;20026;-41
2021/10/15 00:23:38;;;;;;;8.55;6.32;;;;;;;11.29;72.85;100989.97;5011424;28;20108;-44
2021/10/15 00:26:04;;;;;;;6.55;5.18;;;;;;;11.30;73.08;100986.44;5009560;28;20444;-42
2021/10/15 00:28:29;;;;;;;7.15;6.45;;;;;;;11.29;72.99;100982.94;5012462;28;20413;-42
2021/10/15 00:30:57;;;;;;;6.07;5.47;;;;;;;11.29;72.66;100984.69;5012494;28;20026;-47
2021/10/15 00:33:22;;;;;;;6.60;5.90;;;;;;;11.29;73.05;100984.69;5011913;28;20018;-46
2021/10/15 00:35:48;;;;;;;6.00;5.20;;;;;;;11.29;72.80;100976.78;5012236;28;20041;-42
2021/10/15 00:38:13;;;;;;;7.20;6.25;;;;;;;11.29;72.77;100974.13;5041437;28;20038;-42
2021/10/15 00:40:38;;;;;;;6.90;6.20;;;;;;;11.29;72.91;100974.13;5011802;28;20673;-45
2021/10/15 00:43:03;;;;;;;7.10;6.00;;;;;;;11.30;72.78;100970.59;5007611;28;20034;-42
2021/10/15 00:45:29;;;;;;;6.88;6.03;;;;;;;11.28;72.69;100964.47;5009749;28;20045;-45
2021/10/15 00:47:54;;;;;;;7.15;6.05;;;;;;;11.29;72.67;100963.56;5010614;28;20093;-42
2021/10/15 00:50:20;;;;;;;6.78;5.85;;;;;;;11.28;72.69;100957.41;5010182;28;20037;-43
2021/10/15 00:52:45;;;;;;;6.80;5.82;;;;;;;11.29;72.70;100953.00;5010247;28;20061;-42
2021/10/15 00:55:10;;;;;;;6.95;6.25;;;;;;;11.28;72.89;100946.00;5011254;28;20041;-43
2021/10/15 00:57:36;;;;;;;7.05;6.05;;;;;;;11.28;72.85;100936.28;5011889;28;20494;-42
2021/10/15 01:00:02;;;;;;;7.65;6.18;;;;;;;11.28;72.84;100940.72;5010047;28;20056;-42
2021/10/15 01:02:27;;;;;;;6.15;5.55;;;;;;;11.29;73.03;100931.88;5011029;28;20109;-41
2021/10/15 01:04:52;;;;;;;7.72;6.22;;;;;;;11.29;72.90;100934.53;5012858;28;20784;-45
2021/10/15 01:07:18;;;;;;;7.65;6.13;;;;;;;11.28;72.88;100922.22;5039071;28;20041;-43
2021/10/15 01:09:44;;;;;;;6.78;6.07;;;;;;;11.28;72.73;100919.59;5009925;28;20120;-42
2021/10/15 01:12:10;;;;;;;7.05;6.30;;;;;;;11.29;73.04;100921.34;5038769;28;20127;-42
2021/10/15 01:14:35;;;;;;;7.18;6.32;;;;;;;11.28;72.75;100919.59;5037847;28;20526;-42
2021/10/15 01:17:03;;;;;;;6.57;5.88;;;;;;;11.28;72.85;100923.09;5011671;28;20033;-43
2021/10/15 01:19:28;;;;;;;6.85;5.88;;;;;;;11.28;72.65;100914.31;5013311;28;20029;-42
2021/10/15 01:21:53;;;;;;;6.85;6.15;;;;;;;11.29;72.75;100910.78;5011962;28;20029;-43
2021/10/15 01:24:19;;;;;;;6.95;6.22;;;;;;;11.28;72.99;100903.75;5012588;28;20033;-44
2021/10/15 01:26:44;;;;;;;7.82;6.93;;;;;;;11.28;73.10;100898.47;5011351;28;20041;-45
2021/10/15 01:29:10;;;;;;;6.95;6.25;;;;;;;11.27;72.84;100897.56;5011670;28;20400;-42
2021/10/15 01:31:35;;;;;;;6.85;6.15;;;;;;;11.27;72.73;100889.66;5012544;28;20026;-43
2021/10/15 01:34:01;;;;;;;8.07;6.93;;;;;;;11.28;73.06;100887.91;5013150;28;20029;-43
2021/10/15 01:36:26;;;;;;;7.32;6.05;;;;;;;11.27;72.94;100880.88;5040314;28;20037;-42
2021/10/15 01:38:52;;;;;;;8.57;5.78;;;;;;;11.27;72.76;100887.00;5010964;28;20030;-42
2021/10/15 01:41:17;;;;;;;6.95;5.97;;;;;;;11.28;72.90;100893.19;5014831;28;20037;-43
2021/10/15 01:43:42;;;;;;;7.72;6.55;;;;;;;11.27;72.89;100884.38;5015258;28;20026;-41
2021/10/15 01:46:08;;;;;;;7.38;6.53;;;;;;;11.27;72.71;100880.88;5016767;28;20021;-43
2021/10/15 01:48:33;;;;;;;6.18;5.53;;;;;;;11.26;72.75;100874.72;5012031;28;20085;-42
2021/10/15 01:50:58;;;;;;;7.10;6.35;;;;;;;11.26;72.61;100874.72;5011068;28;20083;-42
2021/10/15 01:53:23;;;;;;;7.45;6.35;;;;;;;11.27;72.92;100876.44;5014436;28;20025;-43
2021/10/15 01:55:49;;;;;;;6.45;5.85;;;;;;;11.27;72.44;100872.97;5014840;28;20029;-42
2021/10/15 01:58:17;;;;;;;6.47;5.65;;;;;;;11.27;73.13;100870.31;5012724;28;20025;-42
2021/10/15 02:00:42;;;;;;;6.65;5.95;;;;;;;11.26;72.85;100880.00;5013223;28;20041;-43
2021/10/15 02:03:08;;;;;;;6.47;5.72;;;;;;;11.27;73.08;100867.69;5011133;28;20037;-42
2021/10/15 02:05:33;;;;;;;6.78;5.93;;;;;;;11.28;72.72;100866.78;5015378;28;20101;-42
2021/10/15 02:07:58;;;;;;;7.50;6.25;;;;;;;11.26;72.96;100857.97;5011738;28;20029;-44
2021/10/15 02:10:24;;;;;;;6.18;5.57;;;;;;;11.27;72.71;100859.75;5011794;28;20037;-43
2021/10/15 02:12:50;;;;;;;6.60;5.75;;;;;;;11.26;72.67;100857.97;5010285;28;20026;-42
2021/10/15 02:15:15;;;;;;;9.68;5.80;;;;;;;11.26;72.63;100848.31;5010418;28;20164;-42
2021/10/15 02:17:41;;;;;;;7.20;6.00;;;;;;;11.27;73.04;100843.91;5013783;28;20037;-43
2021/10/15 02:20:09;;;;;;;6.53;5.57;;;;;;;11.27;72.66;100849.19;5009629;28;20160;-42
2021/10/15 02:22:37;;;;;;;5.50;5.00;;;;;;;11.27;72.80;100841.28;5016121;28;20050;-43
2021/10/15 02:25:02;;;;;;;6.10;5.47;;;;;;;11.27;72.75;100838.63;5017574;28;20615;-41
2021/10/15 02:27:28;;;;;;;5.97;5.32;;;;;;;11.26;72.59;100843.03;5011024;28;20113;-42
2021/10/15 02:29:53;;;;;;;6.63;5.60;;;;;;;11.25;72.80;100832.47;5012430;28;20030;-42
2021/10/15 02:32:18;;;;;;;7.25;5.68;;;;;;;11.25;72.49;100828.09;5014006;28;20041;-42
2021/10/15 02:34:44;;;;;;;5.85;5.22;;;;;;;11.26;72.70;100836.84;5008956;28;20037;-42
2021/10/15 02:37:09;;;;;;;6.18;4.97;;;;;;;11.26;72.68;100831.56;5032138;28;20477;-44
2021/10/15 02:39:34;;;;;;;6.32;5.68;;;;;;;11.24;72.76;100823.66;5012826;28;20037;-41
2021/10/15 02:42:00;;;;;;;5.60;5.10;;;;;;;11.25;72.58;100819.28;5015049;28;20152;-44
2021/10/15 02:44:25;;;;;;;5.68;5.18;;;;;;;11.26;72.81;100815.75;5012445;28;20030;-42
2021/10/15 02:46:50;;;;;;;6.80;5.10;;;;;;;11.25;72.55;100814.88;5013184;28;20029;-41
2021/10/15 02:49:16;;;;;;;6.05;5.25;;;;;;;11.25;72.75;100806.06;5038822;28;20033;-42
2021/10/15 02:51:41;;;;;;;6.25;5.10;;;;;;;11.25;72.49;100803.44;5011159;28;20030;-42
2021/10/15 02:54:06;;;;;;;5.28;4.78;;;;;;;11.25;72.54;100803.44;5014545;28;20037;-42
2021/10/15 02:56:32;;;;;;;6.07;5.13;;;;;;;11.24;72.76;100802.53;4992525;28;20026;-42
2021/10/15 02:58:57;;;;;;;5.43;4.93;;;;;;;11.23;72.64;100787.59;5033438;28;20029;-42
2021/10/15 03:01:22;;;;;;;5.50;4.50;;;;;;;11.24;72.42;100783.22;5011374;28;20034;-44
2021/10/15 03:03:48;;;;;;;5.03;4.60;;;;;;;11.24;72.78;100794.63;5010839;28;20025;-42
2021/10/15 03:06:14;;;;;;;5.65;5.05;;;;;;;11.24;72.73;100786.72;5010042;28;21414;-42
2021/10/15 03:08:39;;;;;;;5.18;4.68;;;;;;;11.23;72.65;100782.31;5006335;28;20108;-48
2021/10/15 03:11:04;;;;;;;5.53;4.97;;;;;;;11.25;72.88;100792.88;5011753;28;20487;-45
2021/10/15 03:13:30;;;;;;;5.43;4.85;;;;;;;11.24;72.83;100784.06;5009670;28;20032;-42
2021/10/15 03:15:55;;;;;;;5.88;4.55;;;;;;;11.24;72.80;100784.06;5011670;28;20025;-43
2021/10/15 03:18:20;;;;;;;5.28;4.78;;;;;;;11.24;72.55;100789.34;5009397;28;20037;-42
2021/10/15 03:20:46;;;;;;;5.28;4.78;;;;;;;11.23;72.52;100784.06;5012943;28;20579;-41
2021/10/15 03:23:12;;;;;;;4.20;3.83;;;;;;;11.24;72.85;100785.84;5007751;28;20042;-43
2021/10/15 03:25:37;;;;;;;5.57;4.43;;;;;;;11.25;72.84;100787.59;5012911;28;20112;-41
2021/10/15 03:28:03;;;;;;;5.43;4.38;;;;;;;11.24;72.71;100785.84;5037589;28;20107;-42
2021/10/15 03:30:28;;;;;;;4.55;4.15;;;;;;;11.23;72.49;100784.97;5011505;28;20033;-41
2021/10/15 03:32:53;;;;;;;4.00;3.67;;;;;;;11.25;72.64;100792.88;5013468;28;20472;-41
2021/10/15 03:35:19;;;;;;;5.35;4.50;;;;;;;11.24;72.60;100783.22;5013969;28;20603;-43
2021/10/15 03:37:45;;;;;;;5.10;4.28;;;;;;;11.24;72.59;100785.84;5012416;28;20044;-42
2021/10/15 03:40:11;;;;;;;5.18;4.65;;;;;;;11.23;72.47;100779.69;5010936;28;20053;-43
2021/10/15 03:42:36;;;;;;;4.68;4.22;;;;;;;11.22;72.76;100777.06;5012549;28;20410;-44
2021/10/15 03:45:03;;;;;;;4.50;4.10;;;;;;;11.23;72.87;100776.16;5010258;28;20040;-41
2021/10/15 03:47:28;;;;;;;4.60;3.97;;;;;;;11.24;72.41;100767.38;5008841;28;20038;-46
2021/10/15 03:49:54;;;;;;;4.47;4.07;;;;;;;11.20;72.86;100755.94;5008855;28;20087;-43
2021/10/15 03:52:19;;;;;;;4.63;4.18;;;;;;;11.22;72.55;100769.13;4995534;28;20061;-42
2021/10/15 03:54:44;;;;;;;5.38;4.28;;;;;;;11.23;72.80;100758.56;5005198;28;20030;-43
2021/10/15 03:57:10;;;;;;;5.28;4.65;;;;;;;11.23;72.42;100755.03;5007459;28;20033;-42
2021/10/15 03:59:35;;;;;;;4.53;4.13;;;;;;;11.23;72.67;100741.84;5001767;28;20607;-42
2021/10/15 04:02:00;;;;;;;4.63;3.90;;;;;;;11.23;72.74;100741.84;5012148;28;20028;-41
2021/10/15 04:04:28;;;;;;;5.97;4.82;;;;;;;11.23;72.73;100741.84;5012254;28;20392;-42
2021/10/15 04:06:53;;;;;;;4.70;4.20;;;;;;;11.23;72.86;100739.19;5011204;28;20407;-42
2021/10/15 04:09:19;;;;;;;4.97;3.97;;;;;;;11.22;72.50;100740.97;5011374;28;20026;-41
2021/10/15 04:11:44;;;;;;;4.53;4.13;;;;;;;11.23;72.85;100747.13;5009865;28;20025;-42
2021/10/15 04:14:09;;;;;;;5.10;4.60;;;;;;;11.22;72.59;100740.97;5009858;28;20159;-43
2021/10/15 04:16:35;;;;;;;4.35;3.75;;;;;;;11.22;72.56;100740.97;5011263;28;20116;-42
2021/10/15 04:19:00;;;;;;;6.45;4.22;;;;;;;11.21;72.58;100739.25;5009200;28;20546;-41
2021/10/15 04:21:26;;;;;;;3.78;3.40;;;;;;;11.22;72.87;100730.41;5009176;28;20026;-43
2021/10/15 04:23:51;;;;;;;3.58;3.28;;;;;;;11.22;72.80;100729.53;5012378;28;20259;-41
2021/10/15 04:26:17;;;;;;;4.28;3.88;;;;;;;11.23;72.64;100726.00;5010631;28;20120;-43
2021/10/15 04:28:42;;;;;;;4.38;3.97;;;;;;;11.22;72.77;100719.88;5013488;28;20029;-42
2021/10/15 04:31:08;;;;;;;4.45;4.05;;;;;;;11.21;72.91;100726.03;5007168;28;20149;-45
2021/10/15 04:33:33;;;;;;;4.13;3.83;;;;;;;11.21;72.62;100711.97;5026176;28;20026;-42
2021/10/15 04:35:58;;;;;;;3.83;3.53;;;;;;;11.22;72.62;100705.78;4992306;28;20037;-44
2021/10/15 04:38:24;;;;;;;4.13;3.72;;;;;;;11.21;72.54;100701.41;5010879;28;20170;-41
2021/10/15 04:40:49;;;;;;;4.38;3.97;;;;;;;11.21;72.65;100701.41;5013941;28;20026;-42
2021/10/15 04:43:14;;;;;;;4.18;3.67;;;;;;;11.21;72.73;100702.28;5016845;28;20018;-42
2021/10/15 04:45:39;;;;;;;5.07;4.57;;;;;;;11.21;72.55;100693.47;5014412;28;20053;-42
2021/10/15 04:48:05;;;;;;;4.60;4.20;;;;;;;11.22;72.90;100692.56;5012579;28;20484;-42
2021/10/15 04:50:30;;;;;;;4.43;4.03;;;;;;;11.21;72.80;100685.56;5016606;28;20448;-42
2021/10/15 04:52:56;;;;;;;4.20;3.80;;;;;;;11.21;72.46;100685.56;5013208;28;20033;-43
2021/10/15 04:55:21;;;;;;;4.13;3.50;;;;;;;11.21;72.58;100677.63;5016640;28;20373;-42
2021/10/15 04:57:47;;;;;;;3.92;3.53;;;;;;;11.21;72.91;100675.00;5012451;28;20029;-42
2021/10/15 05:00:12;;;;;;;4.82;4.20;;;;;;;11.21;72.81;100675.00;5013054;28;20038;-42
2021/10/15 05:02:41;;;;;;;4.57;3.55;;;;;;;11.21;72.66;100675.88;5013891;28;20021;-43
2021/10/15 05:05:08;;;;;;;4.15;3.60;;;;;;;11.21;72.89;100675.00;5011799;28;20033;-43
2021/10/15 05:07:34;;;;;;;4.13;3.83;;;;;;;11.21;72.79;100675.00;5015163;28;20404;-44
2021/10/15 05:09:59;;;;;;;3.75;3.30;;;;;;;11.21;72.90;100681.16;5009464;28;20022;-43
2021/10/15 05:12:25;;;;;;;4.22;3.83;;;;;;;11.21;72.74;100672.34;5012080;28;20022;-44
2021/10/15 05:14:50;;;;;;;3.92;3.53;;;;;;;11.21;72.52;100669.72;5038969;28;20030;-45
2021/10/15 05:17:16;;;;;;;4.00;3.70;;;;;;;11.21;72.39;100672.34;5007696;28;20110;-45
2021/10/15 05:19:41;;;;;;;3.55;3.20;;;;;;;11.21;72.59;100672.34;5038750;28;20025;-44
2021/10/15 05:22:06;;;;;;;4.03;3.63;;;;;;;11.21;72.67;100667.06;5008685;28;20045;-43
2021/10/15 05:24:32;;;;;;;3.53;3.22;;;;;;;11.20;72.68;100665.34;5011033;28;20062;-45
2021/10/15 05:26:57;;;;;;;3.40;3.10;;;;;;;11.19;72.60;100655.66;5005259;28;20065;-45
2021/10/15 05:29:22;;;;;;;3.50;3.20;;;;;;;11.20;72.41;100649.50;5008398;28;20060;-44
2021/10/15 05:31:48;;;;;;;4.47;3.20;;;;;;;11.20;72.52;100646.84;5007955;28;20459;-44
2021/10/15 05:34:13;;;;;;;3.70;3.35;;;;;;;11.21;72.66;100653.88;5035100;28;20026;-43
2021/10/15 05:36:38;;;;;;;3.90;3.60;;;;;;;11.21;72.72;100651.25;5011041;28;20017;-44
2021/10/15 05:39:04;;;;;;;4.80;3.53;;;;;;;11.21;72.56;100653.88;5007580;28;20030;-43
2021/10/15 05:41:30;;;;;;;3.78;3.45;;;;;;;11.20;72.73;100652.13;5009937;28;21512;-44
2021/10/15 05:43:55;;;;;;;3.72;3.42;;;;;;;11.21;72.79;100656.50;5008056;28;20021;-44
2021/10/15 05:46:20;;;;;;;3.65;3.33;;;;;;;11.19;72.58;100643.34;5012109;28;20026;-43
2021/10/15 05:48:46;;;;;;;3.05;2.85;;;;;;;11.19;72.57;100639.81;5009819;28;20080;-43
2021/10/15 05:51:11;;;;;;;3.50;3.20;;;;;;;11.20;72.62;100641.56;5009324;28;20453;-44
2021/10/15 05:53:36;;;;;;;3.40;3.10;;;;;;;11.20;72.42;100642.44;5008949;28;20116;-44
2021/10/15 05:56:24;;;;;;;3.80;3.40;;;;;;;11.19;72.63;100635.41;5007596;28;20148;-44
2021/10/15 05:58:53;;;;;;;3.30;3.00;;;;;;;11.20;72.61;100646.84;5006866;28;20494;-43
2021/10/15 06:01:22;;;;;;;3.33;3.03;;;;;;;11.19;72.44;100638.06;5003287;28;20041;-43
2021/10/15 06:03:57;;;;;;;3.65;3.35;;;;;;;11.19;72.45;100639.81;5007395;28;20022;-44
2021/10/15 06:13:37;;;;;;;3.10;2.80;;;;;;;11.20;72.82;100636.28;5009669;28;20105;-44
2021/10/15 06:14:40;;;;;;;2.78;2.58;;;;;;;11.19;72.65;100638.06;5010696;28;20107;-43
2021/10/15 06:17:11;;;;;;;3.15;2.85;;;;;;;11.19;72.48;100637.16;5012534;28;20068;-43
2021/10/15 06:22:31;;;;;;;3.67;3.38;;;;;;;11.20;72.72;100628.38;5000766;28;20040;-43
2021/10/15 06:24:56;;;;;;;3.40;3.10;;;;;;;11.18;72.81;100628.41;5011180;28;20030;-43
2021/10/15 06:27:24;;;;;;;3.22;2.92;;;;;;;11.18;72.92;100623.13;5034102;28;20030;-43
2021/10/15 06:29:49;;;;;;;4.82;3.22;;;;;;;11.18;72.88;100638.94;5029304;28;20104;-44
2021/10/15 06:32:16;;;;;;;3.30;3.00;;;;;;;11.18;72.63;100627.50;5010970;28;20026;-44
2021/10/15 06:34:41;;;;;;;3.58;3.28;;;;;;;11.19;72.83;100631.88;5010885;28;20462;-44
2021/10/15 06:37:06;;;;;;;3.25;2.90;;;;;;;11.18;72.91;100628.41;5001947;28;20547;-44
2021/10/15 06:39:32;;;;;;;3.15;2.95;;;;;;;11.19;72.51;100623.97;5005355;28;20038;-43
2021/10/15 06:41:58;;;;;;;3.70;3.15;;;;;;;11.19;72.45;100623.97;5036458;28;20404;-43
2021/10/15 06:44:23;;;;;;;3.47;3.25;;;;;;;11.18;72.88;100617.84;5007185;28;20029;-44
2021/10/15 06:46:49;;;;;;;3.17;2.97;;;;;;;11.18;72.64;100620.47;5008264;28;20018;-44
2021/10/15 06:49:14;;;;;;;4.30;3.47;;;;;;;11.18;72.66;100620.47;5007521;28;20038;-43
2021/10/15 06:51:39;;;;;;;3.40;3.10;;;;;;;11.19;72.83;100614.28;5010152;28;20027;-44
2021/10/15 06:54:05;;;;;;;3.38;3.08;;;;;;;11.18;72.51;100611.66;5007321;28;20112;-44
2021/10/15 06:56:30;;;;;;;3.92;3.03;;;;;;;11.19;72.67;100613.41;5012616;28;20034;-44
2021/10/15 06:58:56;;;;;;;3.50;3.13;;;;;;;11.19;72.55;100602.84;5010096;28;20032;-44
2021/10/15 07:01:21;;;;;;;4.32;3.55;;;;;;;11.19;73.12;100602.84;5001758;28;20030;-43
2021/10/15 07:03:46;;;;;;;3.40;3.10;;;;;;;11.19;72.73;100611.66;5008029;28;20026;-44
2021/10/15 07:06:12;;;;;;;3.80;3.40;;;;;;;11.19;72.86;100619.56;5005492;28;20427;-43
2021/10/15 07:08:37;;;;;;;3.33;3.00;;;;;;;11.19;72.72;100618.69;5009576;28;20053;-43
2021/10/15 07:11:02;;;;;;;3.90;3.60;;;;;;;11.18;72.72;100615.19;5008194;28;20041;-43
2021/10/15 07:13:28;;;;;;;3.80;3.38;;;;;;;11.19;72.91;100608.13;5041853;28;20059;-43
2021/10/15 07:15:53;;;;;;;3.17;2.90;;;;;;;11.19;72.60;100608.13;5010088;28;20025;-44
2021/10/15 07:18:18;;;;;;;3.50;3.20;;;;;;;11.19;72.94;100614.28;5009393;28;20033;-44
2021/10/15 07:20:44;;;;;;;3.83;3.05;;;;;;;11.19;72.72;100613.41;5004429;28;20045;-43
2021/10/15 07:23:11;;;;;;;4.03;3.38;;;;;;;11.18;72.87;100606.38;5005685;28;20047;-43
2021/10/15 07:25:36;;;;;;;3.65;3.35;;;;;;;11.18;72.92;100602.00;5028112;28;20112;-44
2021/10/15 07:28:01;;;;;;;3.97;3.40;;;;;;;11.18;72.73;100617.84;5033940;28;20559;-43
2021/10/15 07:30:27;;;;;;;3.53;3.15;;;;;;;11.19;72.54;100611.66;5005618;28;20018;-45
2021/10/15 07:32:52;;;;;;;3.60;3.13;;;;;;;11.19;72.89;100610.78;5006686;28;20041;-44
2021/10/15 07:35:18;;;;;;;3.78;3.45;;;;;;;11.19;72.83;100609.00;5004400;28;20037;-44
2021/10/15 07:37:44;;;;;;;4.32;3.25;;;;;;;11.19;72.84;100605.50;5031338;28;20029;-46
2021/10/15 07:40:10;;;;;;;4.00;3.55;;;;;;;11.18;72.95;100602.00;5005894;28;20034;-44
2021/10/15 07:42:35;;;;;;;4.32;3.67;;;;;;;11.20;72.94;100599.34;5007065;28;20029;-44
2021/10/15 07:45:00;;;;;;;4.55;4.07;;;;;;;11.19;72.59;100602.84;5004334;28;20061;-43
2021/10/15 07:47:25;;;;;;;3.95;3.38;;;;;;;11.18;72.85;100602.00;5002134;28;20520;-44
2021/10/15 07:49:51;;;;;;;4.30;3.85;;;;;;;11.19;72.83;100609.00;5006154;28;20176;-44
2021/10/15 07:52:17;;;;;;;5.03;3.95;;;;;;;11.19;72.64;100619.56;5005630;28;20056;-56
2021/10/15 07:54:42;;;;;;;3.88;3.50;;;;;;;11.18;72.63;100623.13;5007896;28;20029;-44
2021/10/15 07:57:08;;;;;;;5.32;4.07;;;;;;;11.19;72.94;100616.03;5007389;28;20030;-43
2021/10/15 07:59:34;;;;;;;6.80;4.63;;;;;;;11.19;72.59;100619.56;5006639;28;20111;-44
2021/10/15 08:01:59;;;;;;;5.28;4.00;;;;;;;11.18;72.71;100632.78;5007412;28;20464;-44
2021/10/15 08:04:24;;;;;;;4.13;3.72;;;;;;;11.19;72.61;100626.59;5009430;28;20022;-43
2021/10/15 08:06:53;;;;;;;4.47;4.07;;;;;;;11.20;72.92;100628.38;5010689;28;20076;-44
2021/10/15 08:09:19;;;;;;;3.90;3.50;;;;;;;11.19;72.94;100619.56;5003908;28;20022;-43
2021/10/15 08:11:44;;;;;;;5.53;4.43;;;;;;;11.20;72.90;100620.47;5000961;28;20033;-44
2021/10/15 08:14:09;;;;;;;4.90;4.30;;;;;;;11.20;72.82;100620.47;5009784;28;20423;-44
2021/10/15 08:16:35;;;;;;;4.50;4.10;;;;;;;11.20;72.69;100631.03;5009644;28;20492;-44
2021/10/15 08:19:00;;;;;;;4.38;3.92;;;;;;;11.20;72.74;100628.38;5004237;28;20033;-43
2021/10/15 08:21:25;;;;;;;4.88;4.35;;;;;;;11.20;72.65;100620.47;5013108;28;20053;-43
2021/10/15 08:23:51;;;;;;;5.68;4.43;;;;;;;11.20;72.54;100631.03;5012748;28;20057;-44
2021/10/15 08:26:16;;;;;;;4.65;4.20;;;;;;;11.20;72.57;100631.03;5011132;28;20036;-43
2021/10/15 08:28:42;;;;;;;4.82;4.05;;;;;;;11.20;72.59;100625.75;5009603;28;20100;-44
2021/10/15 08:31:08;;;;;;;4.53;4.13;;;;;;;11.19;72.59;100618.69;5009369;28;20083;-43
2021/10/15 08:33:33;;;;;;;6.10;4.00;;;;;;;11.20;72.57;100620.47;5009657;28;20029;-44
2021/10/15 08:35:59;;;;;;;5.97;4.78;;;;;;;11.21;72.90;100614.28;5007314;28;20037;-42
2021/10/15 08:38:24;;;;;;;4.60;4.20;;;;;;;11.19;72.84;100614.28;5009438;28;20406;-43
2021/10/15 08:40:49;;;;;;;5.32;4.55;;;;;;;11.20;72.64;100615.19;5005412;28;20030;-42
2021/10/15 08:43:15;;;;;;;5.38;4.80;;;;;;;11.20;72.78;100623.94;5013618;28;20029;-42
2021/10/15 08:45:41;;;;;;;5.20;4.70;;;;;;;11.21;72.81;100627.47;5013528;28;20029;-43
2021/10/15 08:48:06;;;;;;;6.20;4.82;;;;;;;11.20;72.78;100621.31;5012334;28;20430;-42
2021/10/15 08:50:32;;;;;;;5.70;4.70;;;;;;;11.21;72.60;100620.44;5015990;28;20048;-42
2021/10/15 08:52:58;;;;;;;6.07;4.95;;;;;;;11.20;72.72;100621.31;5014565;28;20149;-42
2021/10/15 08:55:24;;;;;;;5.40;4.85;;;;;;;11.19;72.82;100614.28;5013642;28;20034;-43
2021/10/15 08:57:51;;;;;;;5.05;4.55;;;;;;;11.21;72.78;100606.34;5009418;28;20099;-41
2021/10/15 09:00:35;;;;;;;5.15;4.65;;;;;;;11.22;72.50;100616.00;5036736;28;20531;-43
2021/10/15 09:03:17;;;;;;;6.60;5.18;;;;;;;11.20;72.39;100599.34;5011551;28;20615;-42
2021/10/15 09:05:56;;;;;;;5.40;4.90;;;;;;;11.20;72.54;100600.19;5006133;28;20137;-42
2021/10/15 09:08:22;;;;;;;6.80;4.60;;;;;;;11.21;72.75;100609.00;5010012;28;20026;-43
2021/10/15 09:10:47;;;;;;;5.43;4.78;;;;;;;11.21;72.79;100609.00;5011211;28;20665;-46
2021/10/15 09:13:17;;;;;;;6.45;4.90;;;;;;;11.20;72.56;100612.53;5015236;28;20065;-41
2021/10/15 09:15:44;;;;;;;5.22;4.72;;;;;;;11.19;73.04;100600.22;5010954;28;20036;-41
2021/10/15 09:18:12;;;;;;;5.63;4.63;;;;;;;11.20;72.83;100600.19;5011021;28;20053;-42
2021/10/15 09:20:37;;;;;;;6.13;4.78;;;;;;;11.21;72.57;100593.16;5013823;28;20029;-48
2021/10/15 09:23:03;;;;;;;6.18;4.32;;;;;;;11.21;72.45;100582.59;5001849;28;20026;-42
2021/10/15 09:25:37;;;;;;;4.47;4.03;;;;;;;11.20;72.84;100588.78;5041984;28;20084;-45
2021/10/15 09:28:12;;;;;;;4.88;4.35;;;;;;;11.21;72.89;100590.53;5007827;28;20744;-42
2021/10/15 09:30:39;;;;;;;5.10;4.63;;;;;;;11.21;72.62;100579.97;5010237;28;20029;-42
2021/10/15 09:33:05;;;;;;;5.95;4.75;;;;;;;11.22;72.55;100586.97;5010399;28;20030;-44
2021/10/15 09:35:32;;;;;;;5.88;4.32;;;;;;;11.21;72.79;100574.69;5013075;28;20104;-43
2021/10/15 09:38:03;;;;;;;7.00;4.70;;;;;;;11.21;72.89;100587.88;5036619;28;20026;-43
2021/10/15 09:40:39;;;;;;;4.40;4.00;;;;;;;11.23;72.87;100586.06;5011505;28;20022;-43
2021/10/15 09:43:06;;;;;;;4.80;4.30;;;;;;;11.22;72.51;100579.06;5004850;28;20040;-43
2021/10/15 09:45:46;;;;;;;4.80;4.30;;;;;;;11.22;72.86;100581.69;5009799;28;20038;-43
2021/10/15 09:48:35;;;;;;;5.32;4.80;;;;;;;11.22;72.60;100582.59;5008240;28;20034;-41
2021/10/15 09:51:11;;;;;;;4.90;4.40;;;;;;;11.22;72.81;100581.69;5010724;28;20033;-45
2021/10/15 09:53:38;;;;;;;5.20;4.30;;;;;;;11.21;72.58;100580.84;5012719;28;20029;-41
2021/10/15 09:56:03;;;;;;;5.45;4.95;;;;;;;11.22;72.48;100577.31;5033660;28;20030;-44
2021/10/15 09:58:29;;;;;;;6.50;5.15;;;;;;;11.22;72.54;100582.59;5011328;28;20036;-43
2021/10/15 10:00:54;;;;;;;5.10;4.60;;;;;;;11.23;72.85;100588.72;5008119;28;20097;-42
2021/10/15 10:03:22;;;;;;;5.10;4.35;;;;;;;11.23;72.69;100588.72;5008437;28;20040;-42
2021/10/15 10:05:49;;;;;;;5.38;4.43;;;;;;;11.22;72.81;100582.59;5040702;28;20044;-42
2021/10/15 10:08:15;;;;;;;5.40;4.72;;;;;;;11.23;72.59;100572.88;5011337;28;20105;-42
2021/10/15 10:10:43;;;;;;;5.60;4.43;;;;;;;11.24;72.55;100577.28;5008621;28;20017;-43
2021/10/15 10:13:09;;;;;;;6.32;4.50;;;;;;;11.23;72.52;100571.13;5013582;28;20034;-42
2021/10/15 10:15:37;;;;;;;4.50;4.07;;;;;;;11.24;72.90;100567.56;5009616;28;20033;-43
2021/10/15 10:18:21;;;;;;;5.10;4.60;;;;;;;11.25;72.93;100558.78;5008673;28;20127;-42
2021/10/15 10:20:57;;;;;;;5.82;4.50;;;;;;;11.25;72.71;100563.19;5012091;28;20399;-42
2021/10/15 10:23:22;;;;;;;6.13;5.45;;;;;;;11.25;72.53;100549.97;5009364;28;20022;-45
2021/10/15 10:25:48;;;;;;;5.80;5.00;;;;;;;11.25;72.93;100560.53;5011976;28;20037;-43
2021/10/15 10:28:21;;;;;;;6.13;4.68;;;;;;;11.25;72.61;100556.16;5006635;28;20112;-42
2021/10/15 10:30:52;;;;;;;5.60;4.80;;;;;;;11.26;72.71;100547.31;5013404;28;20018;-43
2021/10/15 10:33:22;;;;;;;5.65;4.47;;;;;;;11.26;72.97;100547.31;5042093;28;20404;-42
2021/10/15 10:35:49;;;;;;;5.57;4.97;;;;;;;11.26;72.56;100542.03;5006611;28;20077;-42
2021/10/15 10:38:20;;;;;;;5.22;4.72;;;;;;;11.27;72.85;100548.22;5011017;28;20026;-41
2021/10/15 10:41:00;;;;;;;5.43;4.93;;;;;;;11.27;72.93;100553.50;5010646;28;20376;-44
2021/10/15 10:43:32;;;;;;;15.95;6.45;;;;;;;11.30;73.02;100558.69;5009564;28;20044;-42
2021/10/15 10:46:11;;;;;;;12.13;5.40;;;;;;;11.31;73.26;100564.88;5007079;28;20053;-42
2021/10/15 10:48:48;;;;;;;10.38;5.18;;;;;;;11.31;72.84;100570.16;5008428;28;20506;-43
2021/10/15 10:51:15;;;;;;;6.47;5.25;;;;;;;11.31;72.82;100580.72;5010791;28;20022;-43
2021/10/15 10:53:58;;;;;;;9.00;4.65;;;;;;;11.30;73.00;100598.31;5007913;28;21122;-44
2021/10/15 10:56:43;;;;;;;7.88;4.60;;;;;;;11.30;72.76;100590.38;5006192;28;20053;-43
2021/10/15 10:59:21;;;;;;;5.43;4.82;;;;;;;11.29;72.96;100586.88;5006690;28;20049;-42
2021/10/15 11:01:49;;;;;;;6.20;5.13;;;;;;;11.30;72.66;100595.66;5012914;28;20030;-42
2021/10/15 11:04:34;;;;;;;7.53;5.35;;;;;;;11.30;72.91;100590.38;5006162;28;20500;-42
2021/10/15 11:07:02;;;;;;;6.47;5.80;;;;;;;11.31;72.87;100586.88;5011430;28;20472;-45
2021/10/15 11:09:39;;;;;;;5.82;5.22;;;;;;;11.31;72.60;100594.78;5036271;28;20064;-42
2021/10/15 11:12:06;;;;;;;5.70;5.10;;;;;;;11.30;72.61;100600.94;5007721;28;20017;-42
2021/10/15 11:14:51;;;;;;;6.40;5.40;;;;;;;11.31;72.87;100586.88;5008352;28;20018;-42
2021/10/15 11:17:17;;;;;;;6.20;4.85;;;;;;;11.32;72.78;100587.72;5006374;28;20096;-45
2021/10/15 11:19:43;;;;;;;6.35;5.70;;;;;;;11.32;72.96;100593.88;5009316;28;20021;-44
2021/10/15 11:22:08;;;;;;;5.43;4.90;;;;;;;11.31;72.64;100592.16;5007145;28;20026;-42
2021/10/15 11:24:33;;;;;;;7.53;6.05;;;;;;;11.31;72.89;100592.16;5005616;28;20064;-43
2021/10/15 11:26:59;;;;;;;6.88;5.28;;;;;;;11.32;72.64;100593.88;5006878;28;20135;-43
2021/10/15 11:29:24;;;;;;;5.78;5.28;;;;;;;11.33;72.88;100595.63;5004575;28;20418;-43
2021/10/15 11:31:54;;;;;;;6.20;5.35;;;;;;;11.33;72.90;100594.78;5000958;28;20024;-43